createdAt,value
2019-03-15T00:01:39.316Z,20.17
2019-03-15T00:04:07.989Z,21.83
2019-03-15T00:06:36.656Z,20.57
2019-03-15T00:09:08.191Z,19.87
2019-03-15T00:11:36.857Z,19.23
2019-03-15T00:14:05.862Z,17.53
2019-03-15T00:16:34.503Z,17.60
2019-03-15T00:19:03.173Z,18.47
2019-03-15T00:21:31.743Z,17.97
2019-03-15T00:24:00.307Z,18.10
2019-03-15T00:26:29.011Z,18.20
2019-03-15T00:28:57.627Z,17.57
2019-03-15T00:31:26.240Z,15.97
2019-03-15T00:33:54.777Z,17.23
2019-03-15T00:36:23.423Z,15.63
2019-03-15T00:38:52.066Z,19.10
2019-03-15T00:41:20.763Z,18.73
2019-03-15T00:43:49.866Z,16.13
2019-03-15T00:46:18.624Z,14.80
2019-03-15T00:48:47.338Z,16.00
2019-03-15T00:51:15.974Z,15.53
2019-03-15T00:53:44.615Z,16.03
2019-03-15T00:56:13.494Z,15.60
2019-03-15T00:58:41.992Z,12.30
2019-03-15T01:01:10.641Z,12.83
2019-03-15T01:03:39.322Z,12.20
2019-03-15T01:06:07.822Z,12.63
2019-03-15T01:08:36.318Z,12.77
2019-03-15T01:11:05.138Z,12.97
2019-03-15T01:13:33.770Z,13.30
2019-03-15T01:16:02.260Z,14.03
2019-03-15T01:18:30.787Z,13.10
2019-03-15T01:20:59.435Z,14.17
2019-03-15T01:23:28.060Z,14.20
2019-03-15T01:25:56.811Z,14.53
2019-03-15T01:28:25.552Z,14.67
2019-03-15T01:30:55.068Z,13.73
2019-03-15T01:33:23.687Z,13.80
2019-03-15T01:35:52.321Z,11.70
2019-03-15T01:38:20.956Z,12.10
2019-03-15T01:40:49.507Z,12.67
2019-03-15T01:43:18.066Z,12.63
2019-03-15T01:45:46.871Z,11.90
2019-03-15T01:48:16.931Z,11.97
2019-03-15T01:50:45.564Z,13.23
2019-03-15T01:53:14.055Z,13.03
2019-03-15T01:55:42.762Z,14.63
2019-03-15T01:58:11.377Z,15.10
2019-03-15T02:00:40.910Z,16.73
2019-03-15T02:03:09.605Z,15.00
2019-03-15T02:05:38.315Z,16.67
2019-03-15T02:08:06.816Z,17.37
2019-03-15T02:10:35.491Z,15.83
2019-03-15T02:13:04.136Z,15.77
2019-03-15T02:15:32.702Z,15.80
2019-03-15T02:18:01.239Z,15.87
2019-03-15T02:20:29.873Z,15.03
2019-03-15T02:22:58.595Z,15.97
2019-03-15T02:25:27.574Z,16.77
2019-03-15T02:27:56.195Z,16.67
2019-03-15T02:30:24.845Z,17.97
2019-03-15T02:32:53.512Z,17.90
2019-03-15T02:35:22.103Z,17.90
2019-03-15T02:37:50.578Z,19.47
2019-03-15T02:40:19.514Z,19.30
2019-03-15T02:42:48.173Z,18.93
2019-03-15T02:45:16.754Z,17.60
2019-03-15T02:47:46.304Z,15.87
2019-03-15T02:50:15.204Z,16.47
2019-03-15T02:52:43.830Z,17.27
2019-03-15T02:55:12.526Z,16.73
2019-03-15T02:57:41.147Z,16.90
2019-03-15T03:00:10.193Z,15.97
2019-03-15T03:02:38.791Z,15.27
2019-03-15T03:05:09.500Z,16.97
2019-03-15T03:07:38.136Z,17.77
2019-03-15T03:10:08.771Z,17.53
2019-03-15T03:12:41.220Z,17.67
2019-03-15T03:15:10.114Z,17.77
2019-03-15T03:17:40.237Z,18.07
2019-03-15T03:20:09.660Z,18.20
2019-03-15T03:22:38.157Z,18.03
2019-03-15T03:25:07.098Z,17.87
2019-03-15T03:27:35.660Z,18.70
2019-03-15T03:30:05.381Z,17.90
2019-03-15T03:32:34.029Z,20.10
2019-03-15T03:35:09.479Z,20.17
2019-03-15T03:37:37.240Z,24.57
2019-03-15T03:40:07.460Z,26.90
2019-03-15T03:42:36.137Z,25.97
2019-03-15T03:45:05.272Z,26.87
2019-03-15T03:47:33.774Z,26.43
2019-03-15T03:50:02.459Z,25.00
2019-03-15T03:52:31.100Z,25.50
2019-03-15T03:54:59.939Z,24.83
2019-03-15T03:57:28.481Z,23.70
2019-03-15T03:59:57.184Z,23.00
2019-03-15T04:02:26.028Z,25.13
2019-03-15T04:04:54.782Z,21.83
2019-03-15T04:07:23.713Z,20.33
2019-03-15T04:09:52.361Z,18.77
2019-03-15T04:12:21.249Z,16.27
2019-03-15T04:14:49.754Z,15.87
2019-03-15T04:17:18.318Z,16.83
2019-03-15T04:19:47.089Z,16.17
2019-03-15T04:22:15.754Z,16.37
2019-03-15T04:24:44.252Z,16.37
2019-03-15T04:27:12.800Z,15.20
2019-03-15T04:29:41.433Z,15.80
2019-03-15T04:32:10.074Z,16.37
2019-03-15T04:34:38.809Z,16.40
2019-03-15T04:37:09.319Z,16.77
2019-03-15T04:39:37.673Z,18.00
2019-03-15T04:42:06.378Z,21.47
2019-03-15T04:44:34.885Z,18.60
2019-03-15T04:47:03.514Z,17.37
2019-03-15T04:49:32.144Z,19.23
2019-03-15T04:52:00.650Z,18.20
2019-03-15T04:54:29.285Z,22.00
2019-03-15T04:56:58.204Z,18.90
2019-03-15T04:59:26.707Z,17.33
2019-03-15T05:01:55.218Z,16.00
2019-03-15T05:04:24.057Z,16.37
2019-03-15T05:06:52.717Z,16.60
2019-03-15T05:09:21.222Z,15.50
2019-03-15T05:11:50.015Z,13.17
2019-03-15T05:14:19.018Z,13.50
2019-03-15T05:16:47.651Z,12.77
2019-03-15T05:19:16.200Z,13.80
2019-03-15T05:21:44.699Z,12.85
2019-03-15T05:24:13.333Z,13.65
2019-03-15T05:26:42.138Z,23.52
2019-03-15T05:29:10.767Z,19.52
2019-03-15T05:31:39.401Z,20.80
2019-03-15T05:34:07.948Z,23.18
2019-03-15T05:36:36.509Z,13.88
2019-03-15T05:39:06.541Z,14.70
2019-03-15T05:41:35.213Z,13.88
2019-03-15T05:44:03.779Z,14.68
2019-03-15T05:46:32.272Z,16.32
2019-03-15T05:49:01.219Z,16.15
2019-03-15T05:51:29.870Z,13.70
2019-03-15T05:53:58.356Z,13.25
2019-03-15T05:56:26.892Z,13.43
2019-03-15T05:58:55.526Z,14.30
2019-03-15T06:01:24.172Z,15.00
2019-03-15T06:03:52.932Z,15.35
2019-03-15T06:06:21.592Z,15.00
2019-03-15T06:08:50.064Z,13.98
2019-03-15T06:11:18.770Z,15.68
2019-03-15T06:13:47.407Z,14.30
2019-03-15T06:16:16.053Z,15.30
2019-03-15T06:18:44.575Z,14.18
2019-03-15T06:21:13.078Z,17.23
2019-03-15T06:23:41.756Z,15.45
2019-03-15T06:26:10.394Z,17.20
2019-03-15T06:28:38.900Z,16.02
2019-03-15T06:31:07.433Z,18.20
2019-03-15T06:33:36.072Z,16.20
2019-03-15T06:36:04.915Z,17.40
2019-03-15T06:38:33.779Z,18.20
2019-03-15T06:41:02.388Z,17.10
2019-03-15T06:43:31.028Z,17.60
2019-03-15T06:45:59.613Z,16.50
2019-03-15T06:48:28.551Z,17.27
2019-03-15T06:50:57.216Z,19.15
2019-03-15T06:53:25.780Z,17.05
2019-03-15T06:55:54.276Z,16.90
2019-03-15T06:58:23.031Z,16.15
2019-03-15T07:00:54.544Z,15.15
2019-03-15T07:03:21.979Z,16.90
2019-03-15T07:05:50.557Z,15.95
2019-03-15T07:08:19.201Z,15.58
2019-03-15T07:10:47.872Z,16.07
2019-03-15T07:13:16.398Z,16.37
2019-03-15T07:15:44.968Z,14.60
2019-03-15T07:18:13.685Z,15.83
2019-03-15T07:20:49.471Z,19.17
2019-03-15T07:23:18.124Z,16.85
2019-03-15T07:25:46.785Z,15.18
2019-03-15T07:28:15.292Z,15.35
2019-03-15T07:30:43.862Z,15.32
2019-03-15T07:33:12.567Z,15.40
2019-03-15T07:35:41.221Z,13.90
2019-03-15T07:38:09.724Z,13.10
2019-03-15T07:40:38.273Z,14.60
2019-03-15T07:43:06.919Z,12.73
2019-03-15T07:45:35.555Z,13.70
2019-03-15T07:48:04.242Z,14.07
2019-03-15T07:50:32.743Z,14.53
2019-03-15T07:53:01.380Z,13.45
2019-03-15T07:55:30.069Z,12.00
2019-03-15T07:57:58.815Z,12.65
2019-03-15T08:00:27.450Z,11.78
2019-03-15T08:02:56.181Z,12.15
2019-03-15T08:05:24.752Z,14.00
2019-03-15T08:07:53.394Z,12.35
2019-03-15T08:10:22.224Z,11.80
2019-03-15T08:12:50.724Z,12.80
2019-03-15T08:15:19.438Z,16.23
2019-03-15T08:17:48.107Z,16.35
2019-03-15T08:20:16.756Z,16.85
2019-03-15T08:22:45.328Z,16.25
2019-03-15T08:25:14.127Z,11.70
2019-03-15T08:27:42.758Z,13.18
2019-03-15T08:30:16.113Z,12.35
2019-03-15T08:32:44.649Z,10.08
2019-03-15T08:35:13.746Z,12.55
2019-03-15T08:37:42.512Z,11.65
2019-03-15T08:40:12.572Z,12.00
2019-03-15T08:42:41.085Z,11.60
2019-03-15T08:45:19.694Z,11.15
2019-03-15T08:47:48.332Z,12.43
2019-03-15T08:50:24.263Z,13.50
2019-03-15T08:52:53.854Z,10.23
2019-03-15T08:55:21.569Z,12.82
2019-03-15T08:57:50.060Z,9.78
2019-03-15T09:00:19.346Z,9.48
2019-03-15T09:02:47.981Z,10.32
2019-03-15T09:05:17.233Z,10.13
2019-03-15T09:07:45.759Z,9.85
2019-03-15T09:10:23.894Z,9.85
2019-03-15T09:12:46.286Z,10.40
2019-03-15T09:15:15.702Z,11.57
2019-03-15T09:17:44.203Z,10.58
2019-03-15T09:20:15.226Z,10.48
2019-03-15T09:22:43.928Z,9.90
2019-03-15T09:25:20.266Z,8.40
2019-03-15T09:27:47.290Z,7.83
2019-03-15T09:30:24.784Z,6.75
2019-03-15T09:32:47.296Z,5.75
2019-03-15T09:35:15.994Z,7.08
2019-03-15T09:37:47.209Z,6.08
2019-03-15T09:40:16.371Z,7.78
2019-03-15T09:42:45.102Z,5.87
2019-03-15T09:45:15.357Z,8.38
2019-03-15T09:47:43.917Z,7.40
2019-03-15T09:50:23.154Z,7.55
2019-03-15T09:52:44.246Z,6.50
2019-03-15T09:55:15.729Z,6.55
2019-03-15T09:57:44.300Z,5.83
2019-03-15T10:00:17.072Z,5.95
2019-03-15T10:02:45.900Z,6.70
2019-03-15T10:05:14.737Z,7.20
2019-03-15T10:07:44.176Z,5.97
2019-03-15T10:10:19.352Z,6.08
2019-03-15T10:12:48.294Z,5.42
2019-03-15T10:15:17.614Z,6.35
2019-03-15T10:17:46.542Z,6.92
2019-03-15T10:20:15.619Z,6.35
2019-03-15T10:22:44.170Z,6.53
2019-03-15T10:25:14.219Z,8.53
2019-03-15T10:27:43.034Z,6.55
2019-03-15T10:30:16.531Z,6.22
2019-03-15T10:32:45.165Z,6.40
2019-03-15T10:35:14.094Z,7.15
2019-03-15T10:37:42.723Z,6.78
2019-03-15T10:40:14.665Z,5.35
2019-03-15T10:42:43.188Z,5.85
2019-03-15T10:45:11.818Z,4.78
2019-03-15T10:47:42.414Z,4.58
2019-03-15T10:50:15.921Z,5.40
2019-03-15T10:52:44.545Z,3.45
2019-03-15T10:55:13.270Z,4.33
2019-03-15T10:57:41.893Z,4.28
2019-03-15T11:00:14.212Z,5.00
2019-03-15T11:02:42.839Z,4.90
2019-03-15T11:05:11.604Z,3.90
2019-03-15T11:07:40.102Z,3.37
2019-03-15T11:10:10.799Z,1.45
2019-03-15T11:12:39.481Z,2.75
2019-03-15T11:15:13.334Z,2.00
2019-03-15T11:17:41.922Z,2.60
2019-03-15T11:20:11.456Z,3.15
2019-03-15T11:22:40.263Z,2.90
2019-03-15T11:25:10.396Z,3.35
2019-03-15T11:27:39.426Z,1.35
2019-03-15T11:30:12.909Z,1.57
2019-03-15T11:32:41.405Z,1.75
2019-03-15T11:35:10.670Z,0.90
2019-03-15T11:37:39.312Z,2.80
2019-03-15T11:40:18.548Z,2.42
2019-03-15T11:42:45.692Z,1.92
2019-03-15T11:45:21.415Z,2.83
2019-03-15T11:48:02.889Z,2.37
2019-03-15T11:50:21.400Z,2.52
2019-03-15T11:52:50.026Z,1.98
2019-03-15T11:55:18.524Z,1.40
2019-03-15T11:57:47.151Z,1.70
2019-03-15T12:00:19.568Z,2.20
2019-03-15T12:02:48.066Z,1.60
2019-03-15T12:05:16.911Z,1.20
2019-03-15T12:07:45.507Z,1.75
2019-03-15T12:10:17.577Z,1.67
2019-03-15T12:12:46.285Z,1.67
2019-03-15T12:15:19.360Z,1.90
2019-03-15T12:17:48.047Z,1.67
2019-03-15T12:20:16.676Z,2.00
2019-03-15T12:22:45.353Z,1.45
2019-03-15T12:25:13.987Z,0.80
2019-03-15T12:27:42.624Z,1.12
2019-03-15T12:30:18.372Z,1.50
2019-03-15T12:32:47.084Z,1.35
2019-03-15T12:35:16.122Z,1.05
2019-03-15T12:37:44.885Z,1.35
2019-03-15T12:40:14.918Z,1.40
2019-03-15T12:42:43.548Z,1.62
2019-03-15T12:45:13.121Z,1.52
2019-03-15T12:47:41.752Z,2.08
2019-03-15T12:50:11.987Z,1.00
2019-03-15T12:52:47.590Z,2.22
2019-03-15T12:55:12.103Z,1.50
2019-03-15T12:57:40.784Z,1.40
2019-03-15T13:00:21.350Z,1.10
2019-03-15T13:02:50.072Z,1.15
2019-03-15T13:05:18.710Z,1.70
2019-03-15T13:07:47.346Z,1.82
2019-03-15T13:10:20.983Z,1.87
2019-03-15T13:12:49.703Z,1.55
2019-03-15T13:15:18.756Z,1.35
2019-03-15T13:17:47.369Z,1.22
2019-03-15T13:20:16.888Z,0.95
2019-03-15T13:22:45.517Z,2.00
2019-03-15T13:25:14.205Z,2.40
2019-03-15T13:27:42.990Z,0.80
2019-03-15T13:30:15.766Z,0.90
2019-03-15T13:32:44.329Z,0.70
2019-03-15T13:35:13.699Z,0.88
2019-03-15T13:37:43.317Z,0.78
2019-03-15T13:40:19.200Z,0.80
2019-03-15T13:42:47.840Z,0.90
2019-03-15T13:45:17.074Z,0.70
2019-03-15T13:47:45.717Z,0.53
2019-03-15T13:50:19.327Z,1.95
2019-03-15T13:52:48.030Z,2.75
2019-03-15T13:55:16.869Z,0.80
2019-03-15T13:57:45.431Z,0.70
2019-03-15T14:00:18.618Z,0.60
2019-03-15T14:02:47.305Z,0.90
2019-03-15T14:05:15.946Z,0.70
2019-03-15T14:07:44.576Z,0.60
2019-03-15T14:10:15.392Z,0.85
2019-03-15T14:12:43.953Z,0.60
2019-03-15T14:15:14.647Z,0.93
2019-03-15T14:17:43.524Z,0.90
2019-03-15T14:20:12.851Z,1.30
2019-03-15T14:22:41.616Z,1.52
2019-03-15T14:25:26.954Z,1.90
2019-03-15T14:27:55.586Z,1.30
2019-03-15T14:30:24.216Z,2.25
2019-03-15T14:32:52.820Z,2.10
2019-03-15T14:35:21.326Z,1.82
2019-03-15T14:37:49.986Z,2.30
2019-03-15T14:40:18.636Z,3.27
2019-03-15T14:42:47.407Z,2.83
2019-03-15T14:45:16.543Z,2.67
2019-03-15T14:47:45.329Z,3.40
2019-03-15T14:50:14.870Z,4.25
2019-03-15T14:52:43.645Z,2.75
2019-03-15T14:55:13.379Z,2.30
2019-03-15T14:57:52.108Z,1.50
2019-03-15T15:00:16.996Z,2.77
2019-03-15T15:02:45.685Z,1.65
2019-03-15T15:05:14.311Z,2.15
2019-03-15T15:07:42.941Z,2.08
2019-03-15T15:10:18.314Z,2.75
2019-03-15T15:12:46.958Z,1.30
2019-03-15T15:15:17.331Z,2.33
2019-03-15T15:17:46.005Z,1.90
2019-03-15T15:20:14.637Z,3.22
2019-03-15T15:22:43.308Z,1.35
2019-03-15T15:25:17.759Z,1.07
2019-03-15T15:27:46.256Z,1.22
2019-03-15T15:30:18.377Z,1.87
2019-03-15T15:32:47.108Z,1.60
2019-03-15T15:35:15.843Z,1.70
2019-03-15T15:37:44.433Z,2.10
2019-03-15T15:40:15.372Z,2.40
2019-03-15T15:42:44.007Z,2.42
2019-03-15T15:45:13.146Z,3.02
2019-03-15T15:47:41.936Z,3.00
2019-03-15T15:50:12.048Z,3.47
2019-03-15T15:52:40.682Z,4.05
2019-03-15T15:55:10.957Z,4.90
2019-03-15T15:57:39.517Z,5.12
2019-03-15T16:00:16.835Z,3.70
2019-03-15T16:02:45.458Z,4.37
2019-03-15T16:05:14.300Z,5.17
2019-03-15T16:07:43.081Z,7.60
2019-03-15T16:10:13.016Z,7.05
2019-03-15T16:12:42.137Z,6.22
2019-03-15T16:15:16.344Z,7.35
2019-03-15T16:17:45.891Z,5.97
2019-03-15T16:20:15.205Z,4.70
2019-03-15T16:22:43.795Z,4.78
2019-03-15T16:25:12.933Z,4.90
2019-03-15T16:27:41.575Z,5.85
2019-03-15T16:30:22.414Z,7.85
2019-03-15T16:32:50.983Z,8.35
2019-03-15T16:35:19.553Z,10.23
2019-03-15T16:37:48.222Z,10.25
2019-03-15T16:40:16.963Z,9.75
2019-03-15T16:42:45.521Z,8.43
2019-03-15T16:45:29.308Z,6.45
2019-03-15T16:47:57.911Z,7.42
2019-03-15T16:50:26.540Z,6.12
2019-03-15T16:52:55.179Z,7.05
2019-03-15T16:55:23.809Z,5.92
2019-03-15T16:57:52.301Z,5.70
2019-03-15T17:00:20.922Z,5.70
2019-03-15T17:02:49.606Z,5.78
2019-03-15T17:05:18.337Z,5.53
2019-03-15T17:07:47.110Z,5.28
2019-03-15T17:10:16.928Z,5.10
2019-03-15T17:12:45.754Z,5.33
2019-03-15T17:15:16.864Z,6.70
2019-03-15T17:17:45.370Z,7.53
2019-03-15T17:20:14.507Z,9.18
2019-03-15T17:22:43.169Z,9.98
2019-03-15T17:25:12.510Z,9.65
2019-03-15T17:27:41.177Z,9.48
2019-03-15T17:30:14.354Z,11.97
2019-03-15T17:32:43.184Z,13.38
2019-03-15T17:35:18.928Z,9.80
2019-03-15T17:37:47.497Z,9.63
2019-03-15T17:40:17.125Z,5.80
2019-03-15T17:42:45.793Z,4.15
2019-03-15T17:45:14.896Z,3.30
2019-03-15T17:47:43.363Z,3.50
2019-03-15T17:50:20.531Z,3.58
2019-03-15T17:52:49.159Z,4.00
2019-03-15T17:55:18.296Z,5.30
2019-03-15T17:57:46.833Z,6.03
2019-03-15T18:00:34.368Z,6.97
2019-03-15T18:03:03.041Z,7.83
2019-03-15T18:05:31.770Z,10.03
2019-03-15T18:08:00.458Z,11.48
2019-03-15T18:10:32.487Z,12.58
2019-03-15T18:12:59.489Z,12.43
2019-03-15T18:15:28.050Z,11.22
2019-03-15T18:17:59.814Z,11.83
2019-03-15T18:20:27.357Z,10.60
2019-03-15T18:22:56.116Z,6.17
2019-03-15T18:25:24.656Z,6.12
2019-03-15T18:27:53.686Z,2.77
2019-03-15T18:30:22.420Z,2.52
2019-03-15T18:32:51.018Z,3.67
2019-03-15T18:35:32.601Z,3.45
2019-03-15T18:37:49.933Z,2.55
2019-03-15T18:40:21.815Z,1.90
2019-03-15T18:42:50.467Z,1.92
2019-03-15T18:45:19.193Z,2.22
2019-03-15T18:47:47.895Z,2.40
2019-03-15T18:50:21.339Z,2.37
2019-03-15T18:52:50.180Z,2.42
2019-03-15T18:55:19.057Z,2.40
2019-03-15T18:57:47.611Z,2.33
2019-03-15T19:00:21.161Z,2.00
2019-03-15T19:02:50.137Z,2.45
2019-03-15T19:05:18.757Z,2.10
2019-03-15T19:07:47.382Z,2.35
2019-03-15T19:10:16.711Z,1.77
2019-03-15T19:12:45.426Z,3.10
2019-03-15T19:15:15.351Z,2.43
2019-03-15T19:17:43.953Z,2.52
2019-03-15T19:20:14.288Z,2.33
2019-03-15T19:22:42.964Z,3.12
2019-03-15T19:25:12.705Z,3.35
2019-03-15T19:27:41.338Z,2.77
2019-03-15T19:30:14.872Z,2.25
2019-03-15T19:32:43.688Z,2.15
2019-03-15T19:35:12.369Z,2.27
2019-03-15T19:37:41.107Z,3.05
2019-03-15T19:40:15.246Z,2.87
2019-03-15T19:42:45.479Z,3.23
2019-03-15T19:45:15.296Z,2.95
2019-03-15T19:47:44.194Z,3.60
2019-03-15T19:50:15.157Z,2.70
2019-03-15T19:52:43.786Z,2.80
2019-03-15T19:55:13.746Z,3.37
2019-03-15T19:57:42.373Z,2.52
2019-03-15T20:00:13.373Z,1.95
2019-03-15T20:02:41.906Z,2.33
2019-03-15T20:05:10.581Z,2.55
2019-03-15T20:07:39.292Z,2.55
2019-03-15T20:10:16.472Z,2.10
2019-03-15T20:12:43.919Z,2.35
2019-03-15T20:15:14.453Z,1.80
2019-03-15T20:17:43.125Z,2.17
2019-03-15T20:20:14.292Z,2.00
2019-03-15T20:22:42.850Z,2.20
2019-03-15T20:25:13.081Z,2.62
2019-03-15T20:27:41.708Z,2.10
2019-03-15T20:30:21.237Z,2.52
2019-03-15T20:32:43.446Z,3.05
2019-03-15T20:35:12.011Z,2.70
2019-03-15T20:37:40.632Z,2.85
2019-03-15T20:40:13.284Z,3.65
2019-03-15T20:42:41.850Z,2.47
2019-03-15T20:45:22.362Z,3.22
2019-03-15T20:47:50.914Z,3.45
2019-03-15T20:50:19.561Z,3.02
2019-03-15T20:52:48.225Z,3.08
2019-03-15T20:55:16.845Z,2.92
2019-03-15T20:57:45.331Z,2.70
2019-03-15T21:00:34.363Z,3.30
2019-03-15T21:02:51.980Z,3.35
2019-03-15T21:05:20.717Z,3.05
2019-03-15T21:07:49.246Z,3.83
2019-03-15T21:10:18.566Z,3.75
2019-03-15T21:12:47.313Z,3.50
2019-03-15T21:15:16.867Z,2.90
2019-03-15T21:17:45.467Z,3.33
2019-03-15T21:20:16.166Z,3.50
2019-03-15T21:22:44.861Z,3.00
2019-03-15T21:25:13.485Z,3.27
2019-03-15T21:27:52.885Z,3.42
2019-03-15T21:30:23.313Z,3.10
2019-03-15T21:32:51.879Z,4.53
2019-03-15T21:35:21.660Z,3.35
2019-03-15T21:37:50.340Z,3.05
2019-03-15T21:40:19.963Z,3.05
2019-03-15T21:42:48.444Z,2.02
2019-03-15T21:45:17.364Z,3.17
2019-03-15T21:47:45.959Z,2.98
2019-03-15T21:50:18.886Z,3.27
2019-03-15T21:52:47.479Z,3.17
2019-03-15T21:55:16.106Z,2.90
2019-03-15T21:57:44.738Z,3.70
2019-03-15T22:00:21.319Z,3.22
2019-03-15T22:02:49.881Z,3.40
2019-03-15T22:05:18.533Z,2.98
2019-03-15T22:07:47.273Z,2.90
2019-03-15T22:10:16.724Z,2.98
2019-03-15T22:12:45.475Z,2.67
2019-03-15T22:15:14.335Z,2.70
2019-03-15T22:17:43.380Z,3.00
2019-03-15T22:20:14.046Z,2.47
2019-03-15T22:22:42.716Z,2.33
2019-03-15T22:25:11.265Z,2.00
2019-03-15T22:27:39.817Z,2.43
2019-03-15T22:30:14.386Z,2.40
2019-03-15T22:32:43.023Z,2.10
2019-03-15T22:35:11.650Z,2.00
2019-03-15T22:37:40.241Z,2.07
2019-03-15T22:40:11.212Z,1.77
2019-03-15T22:42:39.848Z,1.97
2019-03-15T22:45:12.751Z,2.50
2019-03-15T22:47:41.480Z,1.85
2019-03-15T22:50:11.400Z,1.72
2019-03-15T22:52:40.081Z,1.60
2019-03-15T22:55:09.925Z,2.47
2019-03-15T22:57:38.550Z,1.87
2019-03-15T23:00:10.117Z,2.30
2019-03-15T23:02:38.734Z,2.25
2019-03-15T23:05:07.689Z,1.50
2019-03-15T23:07:36.363Z,2.02
2019-03-15T23:10:06.494Z,3.22
2019-03-15T23:12:34.984Z,6.47
2019-03-15T23:15:04.365Z,7.47
2019-03-15T23:17:33.054Z,7.42
2019-03-15T23:20:01.620Z,6.33
2019-03-15T23:22:30.202Z,7.50
2019-03-15T23:24:58.769Z,7.70
2019-03-15T23:27:27.323Z,9.60
2019-03-15T23:29:55.933Z,9.43
2019-03-15T23:32:24.568Z,8.77
2019-03-15T23:34:53.126Z,7.50
2019-03-15T23:37:21.864Z,7.43
2019-03-15T23:39:50.420Z,7.37
2019-03-15T23:42:19.048Z,7.47
2019-03-15T23:44:47.631Z,6.80
2019-03-15T23:47:16.135Z,7.13
2019-03-15T23:49:44.694Z,7.90
2019-03-15T23:52:13.331Z,7.23
2019-03-15T23:54:41.907Z,8.13
2019-03-15T23:57:10.396Z,7.37
2019-03-15T23:59:38.956Z,7.60
